sensor_id;sensor_type;location;lat;lon;timestamp;temperature;humidity
22925;DHT22;11628;51.072;3.712;2023-06-14T00:00:07;23.90;80.30
22925;DHT22;11628;51.072;3.712;2023-06-14T00:02:33;23.90;80.70
22925;DHT22;11628;51.072;3.712;2023-06-14T00:04:59;23.80;81.10
22925;DHT22;11628;51.072;3.712;2023-06-14T00:07:36;23.70;81.40
22925;DHT22;11628;51.072;3.712;2023-06-14T00:10:03;23.80;81.60
22925;DHT22;11628;51.072;3.712;2023-06-14T00:12:29;23.70;81.60
22925;DHT22;11628;51.072;3.712;2023-06-14T00:14:55;23.80;81.80
22925;DHT22;11628;51.072;3.712;2023-06-14T00:17:21;23.70;81.70
22925;DHT22;11628;51.072;3.712;2023-06-14T00:19:47;23.70;82.10
22925;DHT22;11628;51.072;3.712;2023-06-14T00:22:12;23.60;82.10
22925;DHT22;11628;51.072;3.712;2023-06-14T00:24:38;23.60;82.50
22925;DHT22;11628;51.072;3.712;2023-06-14T00:27:04;23.50;82.70
22925;DHT22;11628;51.072;3.712;2023-06-14T00:29:30;23.50;82.60
22925;DHT22;11628;51.072;3.712;2023-06-14T00:31:56;23.50;82.40
22925;DHT22;11628;51.072;3.712;2023-06-14T00:34:22;23.50;82.40
22925;DHT22;11628;51.072;3.712;2023-06-14T00:36:47;23.40;82.50
22925;DHT22;11628;51.072;3.712;2023-06-14T00:39:13;23.40;82.40
22925;DHT22;11628;51.072;3.712;2023-06-14T00:41:39;23.40;82.30
22925;DHT22;11628;51.072;3.712;2023-06-14T00:44:05;23.40;82.30
22925;DHT22;11628;51.072;3.712;2023-06-14T00:46:31;23.40;82.20
22925;DHT22;11628;51.072;3.712;2023-06-14T00:48:58;23.30;82.10
22925;DHT22;11628;51.072;3.712;2023-06-14T00:51:25;23.30;81.80
22925;DHT22;11628;51.072;3.712;2023-06-14T00:53:53;23.30;81.80
22925;DHT22;11628;51.072;3.712;2023-06-14T00:56:18;23.20;81.70
22925;DHT22;11628;51.072;3.712;2023-06-14T00:58:46;23.20;81.80
22925;DHT22;11628;51.072;3.712;2023-06-14T01:01:11;23.20;81.50
22925;DHT22;11628;51.072;3.712;2023-06-14T01:03:37;23.10;81.20
22925;DHT22;11628;51.072;3.712;2023-06-14T01:09:25;23.10;81.00
22925;DHT22;11628;51.072;3.712;2023-06-14T01:14:19;23.00;80.70
22925;DHT22;11628;51.072;3.712;2023-06-14T01:16:47;23.00;80.60
22925;DHT22;11628;51.072;3.712;2023-06-14T01:19:14;23.00;80.20
22925;DHT22;11628;51.072;3.712;2023-06-14T01:21:41;23.00;80.30
22925;DHT22;11628;51.072;3.712;2023-06-14T01:24:08;23.00;79.70
22925;DHT22;11628;51.072;3.712;2023-06-14T01:26:35;23.00;79.30
22925;DHT22;11628;51.072;3.712;2023-06-14T01:29:03;23.00;79.40
22925;DHT22;11628;51.072;3.712;2023-06-14T01:31:29;22.90;79.40
22925;DHT22;11628;51.072;3.712;2023-06-14T01:34:05;22.90;79.70
22925;DHT22;11628;51.072;3.712;2023-06-14T01:36:31;22.80;79.30
22925;DHT22;11628;51.072;3.712;2023-06-14T01:38:59;22.70;79.40
22925;DHT22;11628;51.072;3.712;2023-06-14T01:41:25;22.70;79.50
22925;DHT22;11628;51.072;3.712;2023-06-14T01:43:52;22.70;79.40
22925;DHT22;11628;51.072;3.712;2023-06-14T01:46:19;22.70;79.30
22925;DHT22;11628;51.072;3.712;2023-06-14T01:48:45;22.70;78.80
22925;DHT22;11628;51.072;3.712;2023-06-14T01:51:11;22.70;78.60
22925;DHT22;11628;51.072;3.712;2023-06-14T01:53:37;22.70;78.30
22925;DHT22;11628;51.072;3.712;2023-06-14T01:56:02;22.70;78.50
22925;DHT22;11628;51.072;3.712;2023-06-14T01:58:29;22.70;78.60
22925;DHT22;11628;51.072;3.712;2023-06-14T02:00:54;22.50;79.00
22925;DHT22;11628;51.072;3.712;2023-06-14T02:03:23;22.50;79.10
22925;DHT22;11628;51.072;3.712;2023-06-14T02:05:50;22.40;78.80
22925;DHT22;11628;51.072;3.712;2023-06-14T02:08:16;22.30;78.80
22925;DHT22;11628;51.072;3.712;2023-06-14T02:10:41;22.30;79.00
22925;DHT22;11628;51.072;3.712;2023-06-14T02:13:07;22.30;78.90
22925;DHT22;11628;51.072;3.712;2023-06-14T02:15:33;22.20;78.80
22925;DHT22;11628;51.072;3.712;2023-06-14T02:18:02;22.20;78.90
22925;DHT22;11628;51.072;3.712;2023-06-14T02:20:28;22.20;78.90
22925;DHT22;11628;51.072;3.712;2023-06-14T02:22:54;22.30;78.40
22925;DHT22;11628;51.072;3.712;2023-06-14T02:25:20;22.20;77.70
22925;DHT22;11628;51.072;3.712;2023-06-14T02:27:46;22.30;77.60
22925;DHT22;11628;51.072;3.712;2023-06-14T02:30:12;22.20;77.50
22925;DHT22;11628;51.072;3.712;2023-06-14T02:32:37;22.20;77.70
22925;DHT22;11628;51.072;3.712;2023-06-14T02:35:04;22.10;77.40
22925;DHT22;11628;51.072;3.712;2023-06-14T02:37:30;22.20;77.20
22925;DHT22;11628;51.072;3.712;2023-06-14T02:39:56;22.20;76.60
22925;DHT22;11628;51.072;3.712;2023-06-14T02:42:21;22.30;76.30
22925;DHT22;11628;51.072;3.712;2023-06-14T02:44:47;22.20;76.20
22925;DHT22;11628;51.072;3.712;2023-06-14T02:47:19;22.20;76.00
22925;DHT22;11628;51.072;3.712;2023-06-14T02:49:45;22.30;76.30
22925;DHT22;11628;51.072;3.712;2023-06-14T02:52:14;22.20;76.20
22925;DHT22;11628;51.072;3.712;2023-06-14T02:54:40;22.20;76.10
22925;DHT22;11628;51.072;3.712;2023-06-14T02:57:05;22.20;76.10
22925;DHT22;11628;51.072;3.712;2023-06-14T02:59:33;22.10;76.10
22925;DHT22;11628;51.072;3.712;2023-06-14T03:01:59;22.00;76.20
22925;DHT22;11628;51.072;3.712;2023-06-14T03:04:25;22.00;77.00
22925;DHT22;11628;51.072;3.712;2023-06-14T03:06:52;22.00;76.30
22925;DHT22;11628;51.072;3.712;2023-06-14T03:09:19;21.90;76.30
22925;DHT22;11628;51.072;3.712;2023-06-14T03:11:46;21.90;76.30
22925;DHT22;11628;51.072;3.712;2023-06-14T03:14:11;21.90;76.30
22925;DHT22;11628;51.072;3.712;2023-06-14T03:16:38;22.00;75.90
22925;DHT22;11628;51.072;3.712;2023-06-14T03:19:04;21.90;75.90
22925;DHT22;11628;51.072;3.712;2023-06-14T03:21:30;21.80;75.70
22925;DHT22;11628;51.072;3.712;2023-06-14T03:23:56;21.90;75.70
22925;DHT22;11628;51.072;3.712;2023-06-14T03:26:21;21.90;75.40
22925;DHT22;11628;51.072;3.712;2023-06-14T03:28:48;21.90;75.30
22925;DHT22;11628;51.072;3.712;2023-06-14T03:31:16;21.90;76.20
22925;DHT22;11628;51.072;3.712;2023-06-14T03:33:42;22.30;78.90
22925;DHT22;11628;51.072;3.712;2023-06-14T03:36:07;22.70;75.90
22925;DHT22;11628;51.072;3.712;2023-06-14T03:38:33;23.10;75.00
22925;DHT22;11628;51.072;3.712;2023-06-14T03:41:00;23.40;74.40
22925;DHT22;11628;51.072;3.712;2023-06-14T03:43:25;23.70;73.40
22925;DHT22;11628;51.072;3.712;2023-06-14T03:45:51;23.80;71.90
22925;DHT22;11628;51.072;3.712;2023-06-14T03:48:17;23.70;70.50
22925;DHT22;11628;51.072;3.712;2023-06-14T03:50:43;23.60;70.30
22925;DHT22;11628;51.072;3.712;2023-06-14T03:53:10;23.50;70.50
22925;DHT22;11628;51.072;3.712;2023-06-14T03:55:35;23.40;70.70
22925;DHT22;11628;51.072;3.712;2023-06-14T03:58:03;23.30;70.80
22925;DHT22;11628;51.072;3.712;2023-06-14T04:00:29;23.30;70.30
22925;DHT22;11628;51.072;3.712;2023-06-14T04:02:54;23.10;70.60
22925;DHT22;11628;51.072;3.712;2023-06-14T04:05:20;22.90;70.90
22925;DHT22;11628;51.072;3.712;2023-06-14T04:07:46;22.80;71.20
22925;DHT22;11628;51.072;3.712;2023-06-14T04:10:15;22.80;70.50
22925;DHT22;11628;51.072;3.712;2023-06-14T04:12:42;22.70;71.40
22925;DHT22;11628;51.072;3.712;2023-06-14T04:15:08;22.70;71.80
22925;DHT22;11628;51.072;3.712;2023-06-14T04:17:34;22.80;70.90
22925;DHT22;11628;51.072;3.712;2023-06-14T04:20:00;22.80;71.40
22925;DHT22;11628;51.072;3.712;2023-06-14T04:22:27;22.80;70.90
22925;DHT22;11628;51.072;3.712;2023-06-14T04:24:57;22.80;70.50
22925;DHT22;11628;51.072;3.712;2023-06-14T04:27:23;22.90;70.10
22925;DHT22;11628;51.072;3.712;2023-06-14T04:29:55;23.00;69.80
22925;DHT22;11628;51.072;3.712;2023-06-14T04:32:25;23.00;69.60
22925;DHT22;11628;51.072;3.712;2023-06-14T04:34:56;23.00;69.80
22925;DHT22;11628;51.072;3.712;2023-06-14T04:37:22;22.90;70.00
22925;DHT22;11628;51.072;3.712;2023-06-14T04:39:48;22.90;70.20
22925;DHT22;11628;51.072;3.712;2023-06-14T04:42:15;23.00;69.10
22925;DHT22;11628;51.072;3.712;2023-06-14T04:44:42;23.00;68.50
22925;DHT22;11628;51.072;3.712;2023-06-14T04:47:11;23.10;68.30
22925;DHT22;11628;51.072;3.712;2023-06-14T04:49:41;23.10;68.00
22925;DHT22;11628;51.072;3.712;2023-06-14T04:52:07;23.20;67.90
22925;DHT22;11628;51.072;3.712;2023-06-14T04:54:36;23.20;68.40
22925;DHT22;11628;51.072;3.712;2023-06-14T04:57:04;23.20;68.30
22925;DHT22;11628;51.072;3.712;2023-06-14T04:59:31;23.30;67.70
22925;DHT22;11628;51.072;3.712;2023-06-14T05:01:59;23.50;66.90
22925;DHT22;11628;51.072;3.712;2023-06-14T05:04:25;23.60;66.40
22925;DHT22;11628;51.072;3.712;2023-06-14T05:06:53;23.60;66.40
22925;DHT22;11628;51.072;3.712;2023-06-14T05:09:20;23.60;66.50
22925;DHT22;11628;51.072;3.712;2023-06-14T05:11:46;23.60;66.60
22925;DHT22;11628;51.072;3.712;2023-06-14T05:14:13;23.60;66.40
22925;DHT22;11628;51.072;3.712;2023-06-14T05:16:39;23.60;66.40
22925;DHT22;11628;51.072;3.712;2023-06-14T05:19:05;23.50;67.00
22925;DHT22;11628;51.072;3.712;2023-06-14T05:21:31;23.60;66.50
22925;DHT22;11628;51.072;3.712;2023-06-14T05:23:59;23.70;66.20
22925;DHT22;11628;51.072;3.712;2023-06-14T05:26:25;23.70;66.70
22925;DHT22;11628;51.072;3.712;2023-06-14T05:28:54;23.80;66.70
22925;DHT22;11628;51.072;3.712;2023-06-14T05:31:22;23.70;67.10
22925;DHT22;11628;51.072;3.712;2023-06-14T05:33:49;23.80;66.90
22925;DHT22;11628;51.072;3.712;2023-06-14T05:36:15;23.80;66.50
22925;DHT22;11628;51.072;3.712;2023-06-14T05:38:41;23.70;66.40
22925;DHT22;11628;51.072;3.712;2023-06-14T05:41:06;23.70;66.70
22925;DHT22;11628;51.072;3.712;2023-06-14T05:43:32;23.80;66.50
22925;DHT22;11628;51.072;3.712;2023-06-14T05:45:58;23.70;65.80
22925;DHT22;11628;51.072;3.712;2023-06-14T05:48:24;23.80;66.10
22925;DHT22;11628;51.072;3.712;2023-06-14T05:50:50;23.90;65.40
22925;DHT22;11628;51.072;3.712;2023-06-14T05:53:15;24.00;65.70
22925;DHT22;11628;51.072;3.712;2023-06-14T05:55:41;24.10;65.20
22925;DHT22;11628;51.072;3.712;2023-06-14T05:58:07;24.10;65.50
22925;DHT22;11628;51.072;3.712;2023-06-14T06:00:32;24.20;66.00
22925;DHT22;11628;51.072;3.712;2023-06-14T06:02:58;24.20;65.80
22925;DHT22;11628;51.072;3.712;2023-06-14T06:05:24;24.30;65.70
22925;DHT22;11628;51.072;3.712;2023-06-14T06:07:50;24.30;65.30
22925;DHT22;11628;51.072;3.712;2023-06-14T06:10:16;24.30;65.30
22925;DHT22;11628;51.072;3.712;2023-06-14T06:12:42;24.20;65.20
22925;DHT22;11628;51.072;3.712;2023-06-14T06:15:08;24.20;65.00
22925;DHT22;11628;51.072;3.712;2023-06-14T06:17:37;24.10;65.50
22925;DHT22;11628;51.072;3.712;2023-06-14T06:20:04;24.10;65.30
22925;DHT22;11628;51.072;3.712;2023-06-14T06:22:31;24.10;65.70
22925;DHT22;11628;51.072;3.712;2023-06-14T06:24:57;23.90;66.10
22925;DHT22;11628;51.072;3.712;2023-06-14T06:27:22;24.00;66.30
22925;DHT22;11628;51.072;3.712;2023-06-14T06:29:48;24.10;65.70
22925;DHT22;11628;51.072;3.712;2023-06-14T06:32:15;23.90;66.10
22925;DHT22;11628;51.072;3.712;2023-06-14T06:34:40;23.90;66.80
22925;DHT22;11628;51.072;3.712;2023-06-14T06:37:06;24.00;66.30
22925;DHT22;11628;51.072;3.712;2023-06-14T06:39:32;24.10;65.90
22925;DHT22;11628;51.072;3.712;2023-06-14T06:41:58;24.10;65.80
22925;DHT22;11628;51.072;3.712;2023-06-14T06:44:24;24.10;65.90
22925;DHT22;11628;51.072;3.712;2023-06-14T06:46:50;24.20;65.90
22925;DHT22;11628;51.072;3.712;2023-06-14T06:49:16;24.30;65.70
22925;DHT22;11628;51.072;3.712;2023-06-14T06:51:42;24.40;66.60
22925;DHT22;11628;51.072;3.712;2023-06-14T06:54:08;24.50;66.00
22925;DHT22;11628;51.072;3.712;2023-06-14T06:56:35;24.40;65.70
22925;DHT22;11628;51.072;3.712;2023-06-14T06:59:01;24.50;65.80
22925;DHT22;11628;51.072;3.712;2023-06-14T07:01:27;24.50;66.00
22925;DHT22;11628;51.072;3.712;2023-06-14T07:03:55;24.70;66.20
22925;DHT22;11628;51.072;3.712;2023-06-14T07:06:21;24.70;66.20
22925;DHT22;11628;51.072;3.712;2023-06-14T07:08:46;24.90;65.80
22925;DHT22;11628;51.072;3.712;2023-06-14T07:11:16;25.00;65.30
22925;DHT22;11628;51.072;3.712;2023-06-14T07:13:41;25.10;65.10
22925;DHT22;11628;51.072;3.712;2023-06-14T07:16:07;25.20;64.70
22925;DHT22;11628;51.072;3.712;2023-06-14T07:18:33;25.30;64.60
22925;DHT22;11628;51.072;3.712;2023-06-14T07:20:58;25.40;64.50
22925;DHT22;11628;51.072;3.712;2023-06-14T07:23:24;25.50;64.10
22925;DHT22;11628;51.072;3.712;2023-06-14T07:25:50;25.60;63.90
22925;DHT22;11628;51.072;3.712;2023-06-14T07:28:17;25.60;63.90
22925;DHT22;11628;51.072;3.712;2023-06-14T07:30:43;25.80;63.60
22925;DHT22;11628;51.072;3.712;2023-06-14T07:33:09;25.90;62.70
22925;DHT22;11628;51.072;3.712;2023-06-14T07:35:35;25.90;62.90
22925;DHT22;11628;51.072;3.712;2023-06-14T07:38:01;26.00;62.60
22925;DHT22;11628;51.072;3.712;2023-06-14T07:40:27;25.80;63.20
22925;DHT22;11628;51.072;3.712;2023-06-14T07:42:53;26.00;63.70
22925;DHT22;11628;51.072;3.712;2023-06-14T07:45:20;26.10;64.20
22925;DHT22;11628;51.072;3.712;2023-06-14T07:47:45;26.30;64.50
22925;DHT22;11628;51.072;3.712;2023-06-14T07:50:11;26.30;64.70
22925;DHT22;11628;51.072;3.712;2023-06-14T07:52:38;26.50;63.80
22925;DHT22;11628;51.072;3.712;2023-06-14T07:55:04;26.60;63.90
22925;DHT22;11628;51.072;3.712;2023-06-14T07:57:30;26.70;63.90
22925;DHT22;11628;51.072;3.712;2023-06-14T07:59:56;26.70;63.70
22925;DHT22;11628;51.072;3.712;2023-06-14T08:02:22;26.80;63.50
22925;DHT22;11628;51.072;3.712;2023-06-14T08:04:48;27.00;63.10
22925;DHT22;11628;51.072;3.712;2023-06-14T08:07:14;27.00;61.50
22925;DHT22;11628;51.072;3.712;2023-06-14T08:09:41;27.10;62.20
22925;DHT22;11628;51.072;3.712;2023-06-14T08:12:07;27.20;61.70
22925;DHT22;11628;51.072;3.712;2023-06-14T08:14:35;27.20;61.40
22925;DHT22;11628;51.072;3.712;2023-06-14T08:17:01;27.40;61.80
22925;DHT22;11628;51.072;3.712;2023-06-14T08:19:27;27.40;62.00
22925;DHT22;11628;51.072;3.712;2023-06-14T08:21:52;27.60;62.50
22925;DHT22;11628;51.072;3.712;2023-06-14T08:24:21;27.60;61.80
22925;DHT22;11628;51.072;3.712;2023-06-14T08:26:50;27.80;61.10
22925;DHT22;11628;51.072;3.712;2023-06-14T08:29:15;27.90;60.80
22925;DHT22;11628;51.072;3.712;2023-06-14T08:31:41;28.00;60.30
22925;DHT22;11628;51.072;3.712;2023-06-14T08:34:07;28.00;59.90
22925;DHT22;11628;51.072;3.712;2023-06-14T08:36:32;28.10;60.40
22925;DHT22;11628;51.072;3.712;2023-06-14T08:38:58;28.10;60.40
22925;DHT22;11628;51.072;3.712;2023-06-14T08:41:24;28.30;59.60
22925;DHT22;11628;51.072;3.712;2023-06-14T08:43:50;28.40;59.30
22925;DHT22;11628;51.072;3.712;2023-06-14T08:46:18;28.40;58.10
22925;DHT22;11628;51.072;3.712;2023-06-14T08:48:49;28.40;58.40
22925;DHT22;11628;51.072;3.712;2023-06-14T08:51:20;28.60;58.00
22925;DHT22;11628;51.072;3.712;2023-06-14T08:53:55;28.60;57.90
22925;DHT22;11628;51.072;3.712;2023-06-14T08:56:26;28.60;58.00
22925;DHT22;11628;51.072;3.712;2023-06-14T08:58:53;28.10;58.60
22925;DHT22;11628;51.072;3.712;2023-06-14T09:01:18;28.40;58.10
22925;DHT22;11628;51.072;3.712;2023-06-14T09:03:48;28.70;57.30
22925;DHT22;11628;51.072;3.712;2023-06-14T09:06:14;29.00;56.50
22925;DHT22;11628;51.072;3.712;2023-06-14T09:08:45;29.20;57.20
22925;DHT22;11628;51.072;3.712;2023-06-14T09:11:16;29.30;56.30
22925;DHT22;11628;51.072;3.712;2023-06-14T09:13:44;29.30;56.10
22925;DHT22;11628;51.072;3.712;2023-06-14T09:16:10;29.40;55.10
22925;DHT22;11628;51.072;3.712;2023-06-14T09:18:43;29.50;55.50
22925;DHT22;11628;51.072;3.712;2023-06-14T09:21:11;29.60;56.10
22925;DHT22;11628;51.072;3.712;2023-06-14T09:23:40;30.40;55.20
22925;DHT22;11628;51.072;3.712;2023-06-14T09:26:11;32.80;51.60
22925;DHT22;11628;51.072;3.712;2023-06-14T09:28:41;35.80;48.60
22925;DHT22;11628;51.072;3.712;2023-06-14T09:31:09;37.80;45.80
22925;DHT22;11628;51.072;3.712;2023-06-14T09:33:35;39.80;44.60
22925;DHT22;11628;51.072;3.712;2023-06-14T09:36:01;41.60;42.30
22925;DHT22;11628;51.072;3.712;2023-06-14T09:38:27;43.00;40.50
22925;DHT22;11628;51.072;3.712;2023-06-14T09:40:55;44.20;39.80
22925;DHT22;11628;51.072;3.712;2023-06-14T09:43:21;45.10;38.80
22925;DHT22;11628;51.072;3.712;2023-06-14T09:45:48;46.00;38.00
22925;DHT22;11628;51.072;3.712;2023-06-14T09:48:14;47.10;36.80
22925;DHT22;11628;51.072;3.712;2023-06-14T09:50:45;47.90;35.90
22925;DHT22;11628;51.072;3.712;2023-06-14T09:53:12;48.00;35.70
22925;DHT22;11628;51.072;3.712;2023-06-14T09:55:40;48.70;35.00
22925;DHT22;11628;51.072;3.712;2023-06-14T09:58:08;49.00;34.60
22925;DHT22;11628;51.072;3.712;2023-06-14T10:00:34;49.20;34.30
22925;DHT22;11628;51.072;3.712;2023-06-14T10:03:05;49.60;34.00
22925;DHT22;11628;51.072;3.712;2023-06-14T10:05:33;50.10;34.00
22925;DHT22;11628;51.072;3.712;2023-06-14T10:08:10;50.10;33.90
22925;DHT22;11628;51.072;3.712;2023-06-14T10:10:42;50.10;33.90
22925;DHT22;11628;51.072;3.712;2023-06-14T10:13:08;50.50;33.40
22925;DHT22;11628;51.072;3.712;2023-06-14T10:16:05;51.30;33.20
22925;DHT22;11628;51.072;3.712;2023-06-14T10:23:43;53.50;31.80
22925;DHT22;11628;51.072;3.712;2023-06-14T10:26:18;53.10;31.80
22925;DHT22;11628;51.072;3.712;2023-06-14T10:28:59;53.10;31.90
22925;DHT22;11628;51.072;3.712;2023-06-14T10:31:46;51.30;33.20
22925;DHT22;11628;51.072;3.712;2023-06-14T10:34:20;51.20;33.40
22925;DHT22;11628;51.072;3.712;2023-06-14T10:37:00;51.90;32.20
22925;DHT22;11628;51.072;3.712;2023-06-14T10:39:28;52.00;32.20
22925;DHT22;11628;51.072;3.712;2023-06-14T10:41:55;52.30;32.50
22925;DHT22;11628;51.072;3.712;2023-06-14T10:46:47;53.00;31.70
22925;DHT22;11628;51.072;3.712;2023-06-14T10:49:16;53.10;32.00
22925;DHT22;11628;51.072;3.712;2023-06-14T10:51:57;53.40;31.30
22925;DHT22;11628;51.072;3.712;2023-06-14T10:54:23;53.20;31.80
22925;DHT22;11628;51.072;3.712;2023-06-14T10:56:53;53.20;31.80
22925;DHT22;11628;51.072;3.712;2023-06-14T10:59:20;53.60;31.40
22925;DHT22;11628;51.072;3.712;2023-06-14T11:02:18;54.20;30.80
22925;DHT22;11628;51.072;3.712;2023-06-14T11:04:52;54.10;30.40
22925;DHT22;11628;51.072;3.712;2023-06-14T11:07:37;54.10;30.50
22925;DHT22;11628;51.072;3.712;2023-06-14T11:12:48;53.80;30.60
22925;DHT22;11628;51.072;3.712;2023-06-14T11:15:14;53.50;30.50
22925;DHT22;11628;51.072;3.712;2023-06-14T11:17:52;53.80;30.30
22925;DHT22;11628;51.072;3.712;2023-06-14T11:20:19;54.00;30.40
22925;DHT22;11628;51.072;3.712;2023-06-14T11:22:45;54.20;30.00
22925;DHT22;11628;51.072;3.712;2023-06-14T11:25:14;53.70;30.10
22925;DHT22;11628;51.072;3.712;2023-06-14T11:27:43;53.40;30.50
22925;DHT22;11628;51.072;3.712;2023-06-14T11:30:09;53.00;30.20
22925;DHT22;11628;51.072;3.712;2023-06-14T11:32:40;52.70;30.00
22925;DHT22;11628;51.072;3.712;2023-06-14T11:35:07;51.40;30.30
22925;DHT22;11628;51.072;3.712;2023-06-14T11:37:33;51.50;30.30
22925;DHT22;11628;51.072;3.712;2023-06-14T11:39:59;52.10;30.10
22925;DHT22;11628;51.072;3.712;2023-06-14T11:42:28;52.30;30.20
22925;DHT22;11628;51.072;3.712;2023-06-14T11:44:54;52.40;30.00
22925;DHT22;11628;51.072;3.712;2023-06-14T11:47:20;52.10;30.00
22925;DHT22;11628;51.072;3.712;2023-06-14T11:49:46;49.80;31.00
22925;DHT22;11628;51.072;3.712;2023-06-14T11:52:12;49.50;31.60
22925;DHT22;11628;51.072;3.712;2023-06-14T11:54:38;50.90;30.90
22925;DHT22;11628;51.072;3.712;2023-06-14T11:57:06;52.00;30.40
22925;DHT22;11628;51.072;3.712;2023-06-14T11:59:41;52.90;30.00
22925;DHT22;11628;51.072;3.712;2023-06-14T12:02:09;53.80;29.30
22925;DHT22;11628;51.072;3.712;2023-06-14T12:04:35;53.50;29.50
22925;DHT22;11628;51.072;3.712;2023-06-14T12:07:11;53.20;29.50
22925;DHT22;11628;51.072;3.712;2023-06-14T12:12:23;53.10;30.00
22925;DHT22;11628;51.072;3.712;2023-06-14T12:14:51;53.50;29.80
22925;DHT22;11628;51.072;3.712;2023-06-14T12:17:18;53.50;29.60
22925;DHT22;11628;51.072;3.712;2023-06-14T12:19:45;53.40;29.70
22925;DHT22;11628;51.072;3.712;2023-06-14T12:22:12;52.70;29.90
22925;DHT22;11628;51.072;3.712;2023-06-14T12:24:38;52.70;30.30
22925;DHT22;11628;51.072;3.712;2023-06-14T12:27:05;52.70;30.50
22925;DHT22;11628;51.072;3.712;2023-06-14T12:29:31;52.50;30.80
22925;DHT22;11628;51.072;3.712;2023-06-14T12:31:57;51.80;30.90
22925;DHT22;11628;51.072;3.712;2023-06-14T12:34:23;51.70;30.70
22925;DHT22;11628;51.072;3.712;2023-06-14T12:36:53;51.30;30.60
22925;DHT22;11628;51.072;3.712;2023-06-14T12:39:19;50.80;30.60
22925;DHT22;11628;51.072;3.712;2023-06-14T12:41:46;50.20;31.10
22925;DHT22;11628;51.072;3.712;2023-06-14T12:44:12;49.40;31.50
22925;DHT22;11628;51.072;3.712;2023-06-14T12:46:39;49.20;31.70
22925;DHT22;11628;51.072;3.712;2023-06-14T12:49:07;49.50;31.90
22925;DHT22;11628;51.072;3.712;2023-06-14T12:51:33;49.70;31.70
22925;DHT22;11628;51.072;3.712;2023-06-14T12:53:59;49.90;31.70
22925;DHT22;11628;51.072;3.712;2023-06-14T12:56:24;50.30;31.10
22925;DHT22;11628;51.072;3.712;2023-06-14T12:58:51;51.00;31.30
22925;DHT22;11628;51.072;3.712;2023-06-14T13:01:17;51.20;30.90
22925;DHT22;11628;51.072;3.712;2023-06-14T13:03:43;51.00;31.10
22925;DHT22;11628;51.072;3.712;2023-06-14T13:06:09;50.70;30.80
22925;DHT22;11628;51.072;3.712;2023-06-14T13:08:34;49.80;31.20
22925;DHT22;11628;51.072;3.712;2023-06-14T13:11:00;49.70;31.20
22925;DHT22;11628;51.072;3.712;2023-06-14T13:13:26;50.20;31.50
22925;DHT22;11628;51.072;3.712;2023-06-14T13:15:52;50.50;30.70
22925;DHT22;11628;51.072;3.712;2023-06-14T13:18:18;50.40;31.00
22925;DHT22;11628;51.072;3.712;2023-06-14T13:20:46;50.20;31.30
22925;DHT22;11628;51.072;3.712;2023-06-14T13:23:12;50.20;30.90
22925;DHT22;11628;51.072;3.712;2023-06-14T13:25:38;49.70;31.10
22925;DHT22;11628;51.072;3.712;2023-06-14T13:28:04;49.60;31.10
22925;DHT22;11628;51.072;3.712;2023-06-14T13:30:31;49.40;31.20
22925;DHT22;11628;51.072;3.712;2023-06-14T13:32:57;48.80;31.60
22925;DHT22;11628;51.072;3.712;2023-06-14T13:35:24;48.30;31.90
22925;DHT22;11628;51.072;3.712;2023-06-14T13:37:50;48.50;32.20
22925;DHT22;11628;51.072;3.712;2023-06-14T13:40:16;48.60;31.80
22925;DHT22;11628;51.072;3.712;2023-06-14T13:42:42;48.60;32.00
22925;DHT22;11628;51.072;3.712;2023-06-14T13:45:09;48.90;31.80
22925;DHT22;11628;51.072;3.712;2023-06-14T13:47:37;49.10;31.70
22925;DHT22;11628;51.072;3.712;2023-06-14T13:50:04;49.00;32.20
22925;DHT22;11628;51.072;3.712;2023-06-14T13:52:30;48.80;31.70
22925;DHT22;11628;51.072;3.712;2023-06-14T13:54:56;48.40;32.10
22925;DHT22;11628;51.072;3.712;2023-06-14T13:57:21;48.30;32.30
22925;DHT22;11628;51.072;3.712;2023-06-14T13:59:47;47.90;32.20
22925;DHT22;11628;51.072;3.712;2023-06-14T14:02:13;47.70;32.30
22925;DHT22;11628;51.072;3.712;2023-06-14T14:04:40;47.70;32.30
22925;DHT22;11628;51.072;3.712;2023-06-14T14:07:07;47.50;32.70
22925;DHT22;11628;51.072;3.712;2023-06-14T14:09:33;47.30;32.10
22925;DHT22;11628;51.072;3.712;2023-06-14T14:12:00;46.80;32.70
22925;DHT22;11628;51.072;3.712;2023-06-14T14:14:27;46.70;33.50
22925;DHT22;11628;51.072;3.712;2023-06-14T14:16:53;46.50;33.10
22925;DHT22;11628;51.072;3.712;2023-06-14T14:19:20;46.50;33.50
22925;DHT22;11628;51.072;3.712;2023-06-14T14:21:47;46.20;33.60
22925;DHT22;11628;51.072;3.712;2023-06-14T14:24:13;46.00;33.60
22925;DHT22;11628;51.072;3.712;2023-06-14T14:26:39;46.00;33.60
22925;DHT22;11628;51.072;3.712;2023-06-14T14:29:05;46.20;33.50
22925;DHT22;11628;51.072;3.712;2023-06-14T14:31:31;46.30;33.40
22925;DHT22;11628;51.072;3.712;2023-06-14T14:33:57;46.20;33.20
22925;DHT22;11628;51.072;3.712;2023-06-14T14:36:22;46.50;33.30
22925;DHT22;11628;51.072;3.712;2023-06-14T14:38:48;46.90;33.50
22925;DHT22;11628;51.072;3.712;2023-06-14T14:41:14;46.30;33.50
22925;DHT22;11628;51.072;3.712;2023-06-14T14:43:40;45.90;33.50
22925;DHT22;11628;51.072;3.712;2023-06-14T14:46:05;45.60;33.50
22925;DHT22;11628;51.072;3.712;2023-06-14T14:48:31;45.10;33.80
22925;DHT22;11628;51.072;3.712;2023-06-14T14:50:57;44.60;34.30
22925;DHT22;11628;51.072;3.712;2023-06-14T14:53:23;44.40;34.50
22925;DHT22;11628;51.072;3.712;2023-06-14T14:55:49;43.90;34.60
22925;DHT22;11628;51.072;3.712;2023-06-14T14:58:15;43.80;34.40
22925;DHT22;11628;51.072;3.712;2023-06-14T15:00:44;43.60;34.50
22925;DHT22;11628;51.072;3.712;2023-06-14T15:03:10;43.50;34.70
22925;DHT22;11628;51.072;3.712;2023-06-14T15:05:36;43.60;34.90
22925;DHT22;11628;51.072;3.712;2023-06-14T15:08:03;43.70;34.30
22925;DHT22;11628;51.072;3.712;2023-06-14T15:10:29;43.40;34.60
22925;DHT22;11628;51.072;3.712;2023-06-14T15:12:55;42.80;35.00
22925;DHT22;11628;51.072;3.712;2023-06-14T15:15:22;43.10;34.30
22925;DHT22;11628;51.072;3.712;2023-06-14T15:17:47;42.80;34.40
22925;DHT22;11628;51.072;3.712;2023-06-14T15:20:13;42.30;34.80
22925;DHT22;11628;51.072;3.712;2023-06-14T15:22:40;42.10;35.30
22925;DHT22;11628;51.072;3.712;2023-06-14T15:25:06;42.20;35.00
22925;DHT22;11628;51.072;3.712;2023-06-14T15:27:32;41.90;35.70
22925;DHT22;11628;51.072;3.712;2023-06-14T15:29:58;41.80;35.90
22925;DHT22;11628;51.072;3.712;2023-06-14T15:32:24;41.70;35.50
22925;DHT22;11628;51.072;3.712;2023-06-14T15:34:49;41.40;35.60
22925;DHT22;11628;51.072;3.712;2023-06-14T15:37:15;41.20;36.00
22925;DHT22;11628;51.072;3.712;2023-06-14T15:39:41;41.20;36.10
22925;DHT22;11628;51.072;3.712;2023-06-14T15:42:07;40.90;36.90
22925;DHT22;11628;51.072;3.712;2023-06-14T15:44:33;40.60;37.00
22925;DHT22;11628;51.072;3.712;2023-06-14T15:46:58;40.60;36.80